AFL1230 UUEE-UWUU
Flight info
| Callsign | AFL1230 |
|---|---|
| Flight time | 1h 41m |
| Altitude | 33000 |
| Route | KOGOM3H KOGOM L94 EKPIR M864 INKEB L94 UNORO T788 NAMUD L994 DILUP DILUP3Z |
| Aircraft | A320/M-SDE3FGHIRWY/LB1 |
Departure
| Time | 2026-04-26 17:25 |
|---|---|
| Airport | Sheremetyevo International Airport (UUEE) |
Arrival
| Time | 2026-04-26 19:06 |
|---|---|
| Airport | Ufa International Airport (UWUU) |
| Time | Latitude | Longitude | Altitude | Speed | Heading |
|---|---|---|---|---|---|
| 2026-04-26 17:04 | 55.97797 | 37.41809 | 637 ft | 0 kts | 345° |
| 2026-04-26 17:15 | 55.97780 | 37.41814 | 637 ft | 2 kts | 343° |
| 2026-04-26 17:15 | 55.97765 | 37.41822 | 637 ft | 2 kts | 346° |
| 2026-04-26 17:15 | 55.97751 | 37.41827 | 637 ft | 1 kts | 6° |
| 2026-04-26 17:16 | 55.97738 | 37.41820 | 637 ft | 2 kts | 29° |
| 2026-04-26 17:16 | 55.97727 | 37.41804 | 637 ft | 2 kts | 54° |
| 2026-04-26 17:16 | 55.97722 | 37.41788 | 637 ft | 0 kts | 72° |
| 2026-04-26 17:16 | 55.97721 | 37.41775 | 637 ft | 0 kts | 75° |
| 2026-04-26 17:17 | 55.97720 | 37.41775 | 637 ft | 0 kts | 75° |
| 2026-04-26 17:18 | 55.97722 | 37.41782 | 637 ft | 1 kts | 75° |
| 2026-04-26 17:19 | 55.97739 | 37.41883 | 637 ft | 6 kts | 75° |
| 2026-04-26 17:19 | 55.97751 | 37.41975 | 637 ft | 8 kts | 76° |
| 2026-04-26 17:19 | 55.97760 | 37.42084 | 637 ft | 9 kts | 118° |
| 2026-04-26 17:20 | 55.97704 | 37.42122 | 637 ft | 8 kts | 162° |
| 2026-04-26 17:20 | 55.97680 | 37.42174 | 637 ft | 8 kts | 104° |
| 2026-04-26 17:20 | 55.97695 | 37.42300 | 637 ft | 7 kts | 73° |
| 2026-04-26 17:20 | 55.97709 | 37.42396 | 637 ft | 8 kts | 75° |
| 2026-04-26 17:21 | 55.97725 | 37.42503 | 637 ft | 9 kts | 74° |
| 2026-04-26 17:21 | 55.97744 | 37.42622 | 637 ft | 10 kts | 73° |
| 2026-04-26 17:21 | 55.97765 | 37.42752 | 637 ft | 11 kts | 74° |
| 2026-04-26 17:21 | 55.97786 | 37.42894 | 637 ft | 12 kts | 76° |
| 2026-04-26 17:22 | 55.97804 | 37.43044 | 637 ft | 12 kts | 73° |
| 2026-04-26 17:22 | 55.97830 | 37.43202 | 637 ft | 13 kts | 75° |
| 2026-04-26 17:22 | 55.97855 | 37.43366 | 637 ft | 14 kts | 74° |
| 2026-04-26 17:22 | 55.97882 | 37.43538 | 637 ft | 14 kts | 73° |
| 2026-04-26 17:23 | 55.97909 | 37.43708 | 637 ft | 12 kts | 76° |
| 2026-04-26 17:23 | 55.97929 | 37.43862 | 637 ft | 12 kts | 76° |
| 2026-04-26 17:23 | 55.97944 | 37.43972 | 637 ft | 5 kts | 79° |
| 2026-04-26 17:23 | 55.97921 | 37.44029 | 637 ft | 6 kts | 160° |
| 2026-04-26 17:24 | 55.97871 | 37.44054 | 637 ft | 8 kts | 165° |
| 2026-04-26 17:24 | 55.97812 | 37.44075 | 637 ft | 9 kts | 184° |
| 2026-04-26 17:24 | 55.97773 | 37.43993 | 637 ft | 9 kts | 253° |
| 2026-04-26 17:24 | 55.97729 | 37.43690 | 637 ft | 55 kts | 255° |
| 2026-04-26 17:25 | 55.97573 | 37.42642 | 637 ft | 118 kts | 255° |
| 2026-04-26 17:25 | 55.97304 | 37.40897 | 661 ft | 166 kts | 257° |
| 2026-04-26 17:25 | 55.97007 | 37.38926 | 1217 ft | 166 kts | 259° |
| 2026-04-26 17:25 | 55.96709 | 37.36951 | 1859 ft | 168 kts | 261° |
| 2026-04-26 17:26 | 55.96405 | 37.34946 | 2405 ft | 169 kts | 262° |
| 2026-04-26 17:26 | 55.96098 | 37.32916 | 2846 ft | 175 kts | 262° |
| 2026-04-26 17:26 | 55.95755 | 37.30742 | 3203 ft | 188 kts | 261° |
| 2026-04-26 17:26 | 55.95382 | 37.28431 | 3522 ft | 204 kts | 261° |
| 2026-04-26 17:27 | 55.94975 | 37.25872 | 3762 ft | 226 kts | 260° |
| 2026-04-26 17:27 | 55.94537 | 37.23102 | 4130 ft | 243 kts | 259° |
| 2026-04-26 17:27 | 55.94061 | 37.20094 | 4535 ft | 260 kts | 259° |
| 2026-04-26 17:27 | 55.93561 | 37.16960 | 5162 ft | 268 kts | 258° |
| 2026-04-26 17:28 | 55.93053 | 37.13780 | 5894 ft | 272 kts | 258° |
| 2026-04-26 17:28 | 55.92539 | 37.10540 | 6601 ft | 277 kts | 258° |
| 2026-04-26 17:28 | 55.92012 | 37.07210 | 7320 ft | 281 kts | 257° |
| 2026-04-26 17:28 | 55.91590 | 37.03817 | 8030 ft | 283 kts | 271° |
| 2026-04-26 17:29 | 55.91980 | 37.00444 | 8723 ft | 281 kts | 300° |
| 2026-04-26 17:29 | 55.92708 | 36.98550 | 9176 ft | 280 kts | 317° |
| 2026-04-26 17:29 | 55.94780 | 36.95773 | 9841 ft | 285 kts | 329° |
| 2026-04-26 17:29 | 55.96437 | 36.93803 | 9963 ft | 288 kts | 329° |
| 2026-04-26 17:30 | 55.98165 | 36.92078 | 9950 ft | 283 kts | 345° |
| 2026-04-26 17:30 | 56.00101 | 36.91795 | 9972 ft | 279 kts | 12° |
| 2026-04-26 17:30 | 56.01888 | 36.93042 | 10285 ft | 284 kts | 34° |
| 2026-04-26 17:30 | 56.03531 | 36.94977 | 11054 ft | 284 kts | 36° |
| 2026-04-26 17:31 | 56.05186 | 36.96938 | 11688 ft | 290 kts | 36° |
| 2026-04-26 17:31 | 56.06898 | 36.98953 | 12233 ft | 299 kts | 36° |
| 2026-04-26 17:31 | 56.08633 | 37.00991 | 12766 ft | 306 kts | 35° |
| 2026-04-26 17:31 | 56.10416 | 37.03116 | 13226 ft | 312 kts | 40° |
| 2026-04-26 17:32 | 56.11891 | 37.05935 | 13402 ft | 309 kts | 63° |
| 2026-04-26 17:32 | 56.12664 | 37.09486 | 13628 ft | 315 kts | 79° |
| 2026-04-26 17:32 | 56.13187 | 37.13409 | 13928 ft | 328 kts | 81° |
| 2026-04-26 17:32 | 56.13728 | 37.17455 | 14291 ft | 334 kts | 81° |
| 2026-04-26 17:33 | 56.14285 | 37.21494 | 14393 ft | 336 kts | 81° |
| 2026-04-26 17:33 | 56.14851 | 37.25559 | 14382 ft | 335 kts | 82° |
| 2026-04-26 17:33 | 56.14990 | 37.29621 | 14423 ft | 331 kts | 105° |
| 2026-04-26 17:34 | 56.12696 | 37.36363 | 15709 ft | 315 kts | 140° |
| 2026-04-26 17:34 | 56.11146 | 37.39131 | 16310 ft | 316 kts | 139° |
| 2026-04-26 17:34 | 56.09606 | 37.41920 | 16861 ft | 319 kts | 139° |
| 2026-04-26 17:34 | 56.08045 | 37.44745 | 17467 ft | 320 kts | 140° |
| 2026-04-26 17:35 | 56.06484 | 37.47568 | 18008 ft | 321 kts | 140° |
| 2026-04-26 17:35 | 56.04922 | 37.50386 | 18526 ft | 323 kts | 140° |
| 2026-04-26 17:35 | 56.03344 | 37.53230 | 19065 ft | 324 kts | 141° |
| 2026-04-26 17:35 | 56.01740 | 37.56113 | 19601 ft | 325 kts | 141° |
| 2026-04-26 17:36 | 56.00160 | 37.58950 | 20107 ft | 327 kts | 141° |
| 2026-04-26 17:36 | 55.98552 | 37.61832 | 20613 ft | 329 kts | 141° |
| 2026-04-26 17:36 | 55.96940 | 37.64718 | 21041 ft | 332 kts | 141° |
| 2026-04-26 17:36 | 55.95306 | 37.67638 | 21524 ft | 334 kts | 142° |
| 2026-04-26 17:37 | 55.93670 | 37.70578 | 21980 ft | 337 kts | 141° |
| 2026-04-26 17:37 | 55.92120 | 37.73794 | 22420 ft | 344 kts | 136° |
| 2026-04-26 17:37 | 55.90750 | 37.77278 | 22841 ft | 351 kts | 130° |
| 2026-04-26 17:38 | 55.88310 | 37.84921 | 23687 ft | 359 kts | 128° |
| 2026-04-26 17:38 | 55.87103 | 37.88790 | 24098 ft | 362 kts | 128° |
| 2026-04-26 17:38 | 55.85877 | 37.92712 | 24502 ft | 365 kts | 128° |
| 2026-04-26 17:38 | 55.84724 | 37.96764 | 24810 ft | 378 kts | 118° |
| 2026-04-26 17:39 | 55.84320 | 38.01598 | 24921 ft | 414 kts | 94° |
| 2026-04-26 17:39 | 55.84799 | 38.06754 | 25107 ft | 432 kts | 85° |
| 2026-04-26 17:39 | 55.85503 | 38.12016 | 25276 ft | 440 kts | 84° |
| 2026-04-26 17:39 | 55.86213 | 38.17353 | 25523 ft | 444 kts | 85° |
| 2026-04-26 17:40 | 55.86880 | 38.22671 | 26027 ft | 441 kts | 85° |
| 2026-04-26 17:40 | 55.87305 | 38.26214 | 26516 ft | 435 kts | 86° |
| 2026-04-26 17:40 | 55.88108 | 38.33218 | 27126 ft | 434 kts | 87° |
| 2026-04-26 17:40 | 55.88683 | 38.38464 | 27416 ft | 437 kts | 87° |
| 2026-04-26 17:41 | 55.89257 | 38.43815 | 27709 ft | 440 kts | 88° |
| 2026-04-26 17:41 | 55.89826 | 38.49152 | 28013 ft | 442 kts | 88° |
| 2026-04-26 17:41 | 55.90400 | 38.54583 | 28275 ft | 446 kts | 88° |
| 2026-04-26 17:41 | 55.90965 | 38.59956 | 28554 ft | 448 kts | 87° |
| 2026-04-26 17:42 | 55.91535 | 38.65398 | 28831 ft | 451 kts | 88° |
| 2026-04-26 17:42 | 55.92116 | 38.70952 | 29109 ft | 453 kts | 88° |
| 2026-04-26 17:42 | 55.92682 | 38.76402 | 29350 ft | 455 kts | 88° |
| 2026-04-26 17:42 | 55.93261 | 38.82000 | 29591 ft | 458 kts | 88° |
| 2026-04-26 17:43 | 55.93832 | 38.87573 | 29825 ft | 460 kts | 88° |
| 2026-04-26 17:43 | 55.94407 | 38.93185 | 30049 ft | 463 kts | 88° |
| 2026-04-26 17:43 | 55.94980 | 38.98798 | 30284 ft | 465 kts | 88° |
| 2026-04-26 17:43 | 55.95561 | 39.04542 | 30485 ft | 468 kts | 88° |
| 2026-04-26 17:44 | 55.96138 | 39.10267 | 30704 ft | 470 kts | 88° |
| 2026-04-26 17:44 | 55.96714 | 39.16002 | 30913 ft | 473 kts | 88° |
| 2026-04-26 17:44 | 55.97284 | 39.21705 | 31127 ft | 475 kts | 88° |
| 2026-04-26 17:44 | 55.97863 | 39.27510 | 31344 ft | 476 kts | 88° |
| 2026-04-26 17:45 | 55.98441 | 39.33368 | 31493 ft | 478 kts | 88° |
| 2026-04-26 17:45 | 55.99010 | 39.39169 | 31594 ft | 479 kts | 88° |
| 2026-04-26 17:45 | 55.99578 | 39.44992 | 31713 ft | 480 kts | 87° |
| 2026-04-26 17:45 | 56.00153 | 39.50889 | 31823 ft | 482 kts | 87° |
| 2026-04-26 17:46 | 56.01289 | 39.62668 | 32041 ft | 484 kts | 86° |
| 2026-04-26 17:46 | 56.01852 | 39.68556 | 32145 ft | 485 kts | 87° |
| 2026-04-26 17:46 | 56.02396 | 39.74459 | 32246 ft | 484 kts | 88° |
| 2026-04-26 17:47 | 56.02953 | 39.84380 | 32316 ft | 480 kts | 94° |
| 2026-04-26 17:47 | 56.03175 | 39.98204 | 32331 ft | 479 kts | 95° |
| 2026-04-26 17:48 | 56.03319 | 40.10032 | 32336 ft | 479 kts | 95° |
| 2026-04-26 17:48 | 56.03461 | 40.21964 | 32338 ft | 481 kts | 95° |
| 2026-04-26 17:49 | 56.03576 | 40.31883 | 32341 ft | 481 kts | 95° |
| 2026-04-26 17:49 | 56.03724 | 40.45770 | 32344 ft | 483 kts | 95° |
| 2026-04-26 17:50 | 56.03837 | 40.57713 | 32352 ft | 484 kts | 95° |
| 2026-04-26 17:50 | 56.03938 | 40.69751 | 32355 ft | 485 kts | 95° |
| 2026-04-26 17:51 | 56.04033 | 40.81698 | 32366 ft | 485 kts | 95° |
| 2026-04-26 17:51 | 56.04113 | 40.93716 | 32363 ft | 486 kts | 95° |
| 2026-04-26 17:52 | 56.04180 | 41.05801 | 32377 ft | 487 kts | 95° |
| 2026-04-26 17:52 | 56.04239 | 41.17905 | 32384 ft | 488 kts | 95° |
| 2026-04-26 17:53 | 56.04282 | 41.29976 | 32396 ft | 487 kts | 95° |
| 2026-04-26 17:54 | 56.04324 | 41.48080 | 32411 ft | 489 kts | 95° |
| 2026-04-26 17:54 | 56.04337 | 41.60123 | 32413 ft | 488 kts | 95° |
| 2026-04-26 17:55 | 56.04340 | 41.72290 | 32416 ft | 488 kts | 96° |
| 2026-04-26 17:55 | 56.04329 | 41.84390 | 32420 ft | 488 kts | 96° |
| 2026-04-26 17:56 | 56.04306 | 41.96466 | 32420 ft | 489 kts | 96° |
| 2026-04-26 17:57 | 56.04224 | 42.20686 | 32438 ft | 490 kts | 96° |
| 2026-04-26 17:57 | 56.04165 | 42.32807 | 32440 ft | 489 kts | 95° |
| 2026-04-26 17:58 | 56.04003 | 42.57090 | 32456 ft | 491 kts | 96° |
| 2026-04-26 17:59 | 56.03780 | 42.75294 | 32465 ft | 490 kts | 96° |
| 2026-04-26 17:59 | 56.03612 | 42.87400 | 32471 ft | 490 kts | 96° |
| 2026-04-26 18:00 | 56.03435 | 42.99530 | 32484 ft | 490 kts | 96° |
| 2026-04-26 18:00 | 56.03245 | 43.11693 | 32475 ft | 491 kts | 96° |
| 2026-04-26 18:01 | 56.03045 | 43.23753 | 32477 ft | 490 kts | 96° |
| 2026-04-26 18:01 | 56.03088 | 43.35973 | 32487 ft | 496 kts | 90° |
| 2026-04-26 18:02 | 56.03674 | 43.46168 | 32499 ft | 498 kts | 86° |
| 2026-04-26 18:02 | 56.04672 | 43.60486 | 32496 ft | 499 kts | 86° |
| 2026-04-26 18:03 | 56.05506 | 43.72720 | 32507 ft | 499 kts | 87° |
| 2026-04-26 18:03 | 56.06319 | 43.85034 | 32513 ft | 499 kts | 88° |
| 2026-04-26 18:04 | 56.07107 | 43.97253 | 32522 ft | 500 kts | 88° |
| 2026-04-26 18:05 | 56.08279 | 44.15744 | 32531 ft | 500 kts | 87° |
| 2026-04-26 18:05 | 56.09042 | 44.28051 | 32539 ft | 500 kts | 87° |
| 2026-04-26 18:06 | 56.09795 | 44.40414 | 32549 ft | 499 kts | 88° |
| 2026-04-26 18:06 | 56.10532 | 44.52734 | 32548 ft | 499 kts | 87° |
| 2026-04-26 18:07 | 56.11152 | 44.65049 | 32551 ft | 497 kts | 92° |
| 2026-04-26 18:07 | 56.11101 | 44.77241 | 32550 ft | 493 kts | 97° |
| 2026-04-26 18:08 | 56.10820 | 44.89451 | 32565 ft | 492 kts | 97° |
| 2026-04-26 18:08 | 56.10549 | 45.01676 | 32568 ft | 492 kts | 97° |
| 2026-04-26 18:09 | 56.10266 | 45.13812 | 32570 ft | 492 kts | 97° |
| 2026-04-26 18:09 | 56.09981 | 45.26038 | 32575 ft | 491 kts | 96° |
| 2026-04-26 18:10 | 56.09688 | 45.38217 | 32584 ft | 493 kts | 97° |
| 2026-04-26 18:10 | 56.09381 | 45.50426 | 32592 ft | 492 kts | 97° |
| 2026-04-26 18:11 | 56.09063 | 45.62585 | 32597 ft | 492 kts | 97° |
| 2026-04-26 18:11 | 56.08728 | 45.74797 | 32605 ft | 492 kts | 97° |
| 2026-04-26 18:12 | 56.08384 | 45.86946 | 32611 ft | 492 kts | 98° |
| 2026-04-26 18:12 | 56.08026 | 45.99147 | 32613 ft | 492 kts | 97° |
| 2026-04-26 18:13 | 56.07655 | 46.11367 | 32615 ft | 492 kts | 97° |
| 2026-04-26 18:13 | 56.07274 | 46.23503 | 32631 ft | 492 kts | 97° |
| 2026-04-26 18:14 | 56.06877 | 46.35708 | 32630 ft | 493 kts | 97° |
| 2026-04-26 18:14 | 56.06132 | 46.47817 | 32641 ft | 489 kts | 104° |
| 2026-04-26 18:15 | 56.04586 | 46.59491 | 32657 ft | 483 kts | 112° |
| 2026-04-26 18:15 | 56.02336 | 46.70675 | 32659 ft | 480 kts | 117° |
| 2026-04-26 18:16 | 55.99926 | 46.81787 | 32661 ft | 481 kts | 117° |
| 2026-04-26 18:16 | 55.96322 | 46.98448 | 32670 ft | 481 kts | 117° |
| 2026-04-26 18:17 | 55.93923 | 47.09501 | 32668 ft | 482 kts | 117° |
| 2026-04-26 18:17 | 55.91491 | 47.20647 | 32687 ft | 482 kts | 117° |
| 2026-04-26 18:18 | 55.89074 | 47.31672 | 32704 ft | 482 kts | 117° |
| 2026-04-26 18:18 | 55.86611 | 47.42810 | 32691 ft | 484 kts | 117° |
| 2026-04-26 18:19 | 55.84145 | 47.53904 | 32704 ft | 483 kts | 116° |
| 2026-04-26 18:19 | 55.81670 | 47.64978 | 32714 ft | 484 kts | 117° |
| 2026-04-26 18:20 | 55.79174 | 47.76074 | 32713 ft | 484 kts | 117° |
| 2026-04-26 18:20 | 55.77107 | 47.85247 | 32715 ft | 484 kts | 117° |
| 2026-04-26 18:21 | 55.74188 | 47.98137 | 32721 ft | 485 kts | 117° |
| 2026-04-26 18:21 | 55.71653 | 48.09257 | 32709 ft | 485 kts | 117° |
| 2026-04-26 18:22 | 55.69119 | 48.20314 | 32724 ft | 485 kts | 117° |
| 2026-04-26 18:22 | 55.66592 | 48.31271 | 32731 ft | 486 kts | 117° |
| 2026-04-26 18:23 | 55.64021 | 48.42362 | 32733 ft | 486 kts | 117° |
| 2026-04-26 18:23 | 55.61464 | 48.53350 | 32730 ft | 486 kts | 117° |
| 2026-04-26 18:24 | 55.58897 | 48.64356 | 32748 ft | 486 kts | 117° |
| 2026-04-26 18:24 | 55.56303 | 48.75402 | 32762 ft | 486 kts | 118° |
| 2026-04-26 18:25 | 55.53725 | 48.86323 | 32767 ft | 486 kts | 117° |
| 2026-04-26 18:25 | 55.51124 | 48.97277 | 32762 ft | 486 kts | 117° |
| 2026-04-26 18:26 | 55.48510 | 49.08235 | 32784 ft | 486 kts | 117° |
| 2026-04-26 18:26 | 55.45896 | 49.19135 | 32788 ft | 486 kts | 117° |
| 2026-04-26 18:27 | 55.43254 | 49.30084 | 32790 ft | 486 kts | 117° |
| 2026-04-26 18:27 | 55.40607 | 49.41017 | 32800 ft | 486 kts | 117° |
| 2026-04-26 18:28 | 55.37979 | 49.51833 | 32800 ft | 486 kts | 117° |
| 2026-04-26 18:28 | 55.35303 | 49.62783 | 32803 ft | 486 kts | 117° |
| 2026-04-26 18:29 | 55.32636 | 49.73634 | 32815 ft | 486 kts | 118° |
| 2026-04-26 18:29 | 55.29958 | 49.84462 | 32829 ft | 486 kts | 118° |
| 2026-04-26 18:30 | 55.27283 | 49.95253 | 32833 ft | 486 kts | 118° |
| 2026-04-26 18:30 | 55.24583 | 50.06088 | 32835 ft | 486 kts | 118° |
| 2026-04-26 18:31 | 55.21878 | 50.16883 | 32844 ft | 486 kts | 117° |
| 2026-04-26 18:31 | 55.19170 | 50.27632 | 32844 ft | 486 kts | 117° |
| 2026-04-26 18:32 | 55.16444 | 50.38404 | 32851 ft | 486 kts | 117° |
| 2026-04-26 18:32 | 55.13697 | 50.49203 | 32850 ft | 486 kts | 117° |
| 2026-04-26 18:33 | 55.10966 | 50.59886 | 32854 ft | 486 kts | 117° |
| 2026-04-26 18:33 | 55.08194 | 50.70681 | 32857 ft | 486 kts | 118° |
| 2026-04-26 18:34 | 55.05452 | 50.81343 | 32863 ft | 486 kts | 117° |
| 2026-04-26 18:34 | 55.03090 | 50.92372 | 32868 ft | 488 kts | 112° |
| 2026-04-26 18:35 | 55.00874 | 51.03563 | 32867 ft | 488 kts | 112° |
| 2026-04-26 18:35 | 54.98659 | 51.14661 | 32875 ft | 489 kts | 112° |
| 2026-04-26 18:36 | 54.96416 | 51.25806 | 32876 ft | 488 kts | 112° |
| 2026-04-26 18:36 | 54.94165 | 51.36908 | 32885 ft | 489 kts | 112° |
| 2026-04-26 18:37 | 54.91906 | 51.47990 | 32886 ft | 489 kts | 112° |
| 2026-04-26 18:37 | 54.89631 | 51.59085 | 32892 ft | 488 kts | 112° |
| 2026-04-26 18:38 | 54.87362 | 51.70090 | 32895 ft | 489 kts | 112° |
| 2026-04-26 18:38 | 54.85065 | 51.81171 | 32901 ft | 489 kts | 112° |
| 2026-04-26 18:39 | 54.82764 | 51.92206 | 32907 ft | 489 kts | 112° |
| 2026-04-26 18:39 | 54.80454 | 52.03222 | 32907 ft | 489 kts | 112° |
| 2026-04-26 18:40 | 54.78130 | 52.14234 | 32907 ft | 489 kts | 112° |
| 2026-04-26 18:40 | 54.75796 | 52.25251 | 32804 ft | 489 kts | 112° |
| 2026-04-26 18:41 | 54.74631 | 52.30735 | 32546 ft | 486 kts | 112° |
| 2026-04-26 18:41 | 54.73466 | 52.36205 | 32293 ft | 484 kts | 112° |
| 2026-04-26 18:41 | 54.72301 | 52.41652 | 32039 ft | 482 kts | 112° |
| 2026-04-26 18:41 | 54.71141 | 52.47059 | 31787 ft | 481 kts | 112° |
| 2026-04-26 18:42 | 54.69989 | 52.52418 | 31535 ft | 478 kts | 112° |
| 2026-04-26 18:42 | 54.68827 | 52.57805 | 31238 ft | 476 kts | 112° |
| 2026-04-26 18:42 | 54.67682 | 52.63094 | 30946 ft | 474 kts | 112° |
| 2026-04-26 18:42 | 54.66527 | 52.68421 | 30579 ft | 472 kts | 113° |
| 2026-04-26 18:43 | 54.65387 | 52.73662 | 30136 ft | 468 kts | 113° |
| 2026-04-26 18:43 | 54.64281 | 52.78903 | 29669 ft | 465 kts | 111° |
| 2026-04-26 18:43 | 54.63343 | 52.84219 | 29196 ft | 463 kts | 107° |
| 2026-04-26 18:43 | 54.62523 | 52.89510 | 28720 ft | 459 kts | 107° |
| 2026-04-26 18:44 | 54.61713 | 52.94825 | 28243 ft | 455 kts | 107° |
| 2026-04-26 18:44 | 54.60912 | 53.00071 | 27775 ft | 452 kts | 107° |
| 2026-04-26 18:44 | 54.60114 | 53.05257 | 27292 ft | 448 kts | 107° |
| 2026-04-26 18:44 | 54.59322 | 53.10371 | 26821 ft | 444 kts | 107° |
| 2026-04-26 18:45 | 54.58532 | 53.15452 | 26360 ft | 440 kts | 107° |
| 2026-04-26 18:45 | 54.57743 | 53.20501 | 25896 ft | 436 kts | 107° |
| 2026-04-26 18:45 | 54.56955 | 53.25526 | 25431 ft | 432 kts | 107° |
| 2026-04-26 18:45 | 54.56176 | 53.30476 | 24972 ft | 429 kts | 107° |
| 2026-04-26 18:46 | 54.55404 | 53.35366 | 24509 ft | 425 kts | 107° |
| 2026-04-26 18:46 | 54.54635 | 53.40219 | 24066 ft | 421 kts | 107° |
| 2026-04-26 18:46 | 54.53869 | 53.45040 | 23614 ft | 418 kts | 107° |
| 2026-04-26 18:46 | 54.53105 | 53.49833 | 23168 ft | 415 kts | 107° |
| 2026-04-26 18:47 | 54.52346 | 53.54596 | 22722 ft | 412 kts | 107° |
| 2026-04-26 18:47 | 54.51597 | 53.59294 | 22285 ft | 409 kts | 107° |
| 2026-04-26 18:47 | 54.50838 | 53.64024 | 21864 ft | 406 kts | 107° |
| 2026-04-26 18:47 | 54.50089 | 53.68684 | 21419 ft | 403 kts | 107° |
| 2026-04-26 18:48 | 54.49348 | 53.73271 | 20973 ft | 400 kts | 107° |
| 2026-04-26 18:48 | 54.48606 | 53.77864 | 20552 ft | 397 kts | 107° |
| 2026-04-26 18:48 | 54.47876 | 53.82361 | 20131 ft | 394 kts | 107° |
| 2026-04-26 18:48 | 54.47142 | 53.86870 | 19708 ft | 391 kts | 108° |
| 2026-04-26 18:49 | 54.46413 | 53.91341 | 19281 ft | 389 kts | 108° |
| 2026-04-26 18:49 | 54.45689 | 53.95766 | 18881 ft | 386 kts | 108° |
| 2026-04-26 18:49 | 54.44960 | 54.00205 | 18431 ft | 384 kts | 108° |
| 2026-04-26 18:49 | 54.44244 | 54.04560 | 18027 ft | 382 kts | 108° |
| 2026-04-26 18:50 | 54.43523 | 54.08928 | 17594 ft | 380 kts | 108° |
| 2026-04-26 18:50 | 54.42807 | 54.13257 | 17188 ft | 377 kts | 107° |
| 2026-04-26 18:50 | 54.42091 | 54.17584 | 16770 ft | 375 kts | 107° |
| 2026-04-26 18:50 | 54.41385 | 54.21831 | 16349 ft | 373 kts | 107° |
| 2026-04-26 18:51 | 54.40670 | 54.26124 | 15925 ft | 371 kts | 107° |
| 2026-04-26 18:51 | 54.39965 | 54.30332 | 15505 ft | 369 kts | 107° |
| 2026-04-26 18:51 | 54.39266 | 54.34508 | 15100 ft | 367 kts | 107° |
| 2026-04-26 18:51 | 54.38561 | 54.38714 | 14663 ft | 365 kts | 107° |
| 2026-04-26 18:52 | 54.38099 | 54.42933 | 14240 ft | 365 kts | 91° |
| 2026-04-26 18:52 | 54.38476 | 54.47207 | 13815 ft | 362 kts | 70° |
| 2026-04-26 18:52 | 54.39439 | 54.51160 | 13417 ft | 358 kts | 64° |
| 2026-04-26 18:52 | 54.40458 | 54.55008 | 13022 ft | 355 kts | 64° |
| 2026-04-26 18:53 | 54.41467 | 54.58820 | 12615 ft | 352 kts | 64° |
| 2026-04-26 18:53 | 54.42468 | 54.62660 | 12216 ft | 350 kts | 64° |
| 2026-04-26 18:53 | 54.43434 | 54.66415 | 11808 ft | 347 kts | 65° |
| 2026-04-26 18:53 | 54.44394 | 54.70181 | 11402 ft | 344 kts | 65° |
| 2026-04-26 18:54 | 54.45348 | 54.73947 | 11005 ft | 341 kts | 66° |
| 2026-04-26 18:54 | 54.46278 | 54.77637 | 10622 ft | 337 kts | 66° |
| 2026-04-26 18:54 | 54.47203 | 54.81314 | 10262 ft | 333 kts | 66° |
| 2026-04-26 18:54 | 54.48103 | 54.84901 | 10124 ft | 320 kts | 66° |
| 2026-04-26 18:55 | 54.48953 | 54.88298 | 10017 ft | 307 kts | 66° |
| 2026-04-26 18:55 | 54.49782 | 54.91618 | 9799 ft | 300 kts | 66° |
| 2026-04-26 18:55 | 54.50602 | 54.94898 | 9437 ft | 299 kts | 66° |
| 2026-04-26 18:55 | 54.51416 | 54.98158 | 9085 ft | 297 kts | 66° |
| 2026-04-26 18:56 | 54.52228 | 55.01418 | 8740 ft | 295 kts | 66° |
| 2026-04-26 18:56 | 54.53026 | 55.04625 | 8396 ft | 293 kts | 66° |
| 2026-04-26 18:56 | 54.53827 | 55.07853 | 8055 ft | 292 kts | 66° |
| 2026-04-26 18:56 | 54.54613 | 55.11025 | 7714 ft | 290 kts | 67° |
| 2026-04-26 18:57 | 54.55402 | 55.14214 | 7376 ft | 289 kts | 67° |
| 2026-04-26 18:57 | 54.55926 | 55.16336 | 7146 ft | 288 kts | 67° |
| 2026-04-26 18:57 | 54.56963 | 55.20541 | 6692 ft | 286 kts | 67° |
| 2026-04-26 18:57 | 54.57735 | 55.23672 | 6396 ft | 283 kts | 67° |
| 2026-04-26 18:58 | 54.58486 | 55.26716 | 6296 ft | 271 kts | 65° |
| 2026-04-26 18:58 | 54.59378 | 55.29510 | 6162 ft | 263 kts | 54° |
| 2026-04-26 18:58 | 54.60480 | 55.32005 | 5854 ft | 262 kts | 49° |
| 2026-04-26 18:58 | 54.61631 | 55.34397 | 5556 ft | 261 kts | 48° |
| 2026-04-26 18:59 | 54.62793 | 55.36786 | 5261 ft | 260 kts | 49° |
| 2026-04-26 18:59 | 54.63948 | 55.39177 | 4969 ft | 259 kts | 49° |
| 2026-04-26 18:59 | 54.65090 | 55.41568 | 4682 ft | 258 kts | 49° |
| 2026-04-26 18:59 | 54.66222 | 55.43951 | 4397 ft | 257 kts | 49° |
| 2026-04-26 19:00 | 54.67348 | 55.46330 | 4110 ft | 256 kts | 49° |
| 2026-04-26 19:00 | 54.68476 | 55.48719 | 3823 ft | 256 kts | 49° |
| 2026-04-26 19:00 | 54.69594 | 55.51092 | 3555 ft | 254 kts | 49° |
| 2026-04-26 19:00 | 54.70685 | 55.53408 | 3524 ft | 243 kts | 49° |
| 2026-04-26 19:01 | 54.71736 | 55.55676 | 3480 ft | 244 kts | 54° |
| 2026-04-26 19:01 | 54.72317 | 55.58379 | 3345 ft | 240 kts | 93° |
| 2026-04-26 19:01 | 54.71957 | 55.61135 | 3238 ft | 235 kts | 115° |
| 2026-04-26 19:01 | 54.71338 | 55.63706 | 3086 ft | 234 kts | 116° |
| 2026-04-26 19:02 | 54.70739 | 55.66346 | 2772 ft | 238 kts | 114° |
| 2026-04-26 19:02 | 54.70209 | 55.69046 | 2455 ft | 239 kts | 112° |
| 2026-04-26 19:02 | 54.69713 | 55.71770 | 2136 ft | 238 kts | 117° |
| 2026-04-26 19:02 | 54.69142 | 55.73346 | 1999 ft | 224 kts | 141° |
| 2026-04-26 19:03 | 54.67553 | 55.75240 | 1992 ft | 198 kts | 157° |
| 2026-04-26 19:03 | 54.66394 | 55.76282 | 2061 ft | 178 kts | 158° |
| 2026-04-26 19:03 | 54.65368 | 55.77215 | 2012 ft | 156 kts | 158° |
| 2026-04-26 19:03 | 54.64477 | 55.78058 | 1964 ft | 139 kts | 158° |
| 2026-04-26 19:04 | 54.63640 | 55.78853 | 1802 ft | 136 kts | 158° |
| 2026-04-26 19:04 | 54.62822 | 55.79636 | 1622 ft | 135 kts | 157° |
| 2026-04-26 19:04 | 54.62000 | 55.80426 | 1442 ft | 135 kts | 155° |
| 2026-04-26 19:04 | 54.61187 | 55.81209 | 1263 ft | 134 kts | 155° |
| 2026-04-26 19:05 | 54.59557 | 55.82780 | 899 ft | 134 kts | 154° |
| 2026-04-26 19:05 | 54.58747 | 55.83559 | 718 ft | 134 kts | 153° |
| 2026-04-26 19:05 | 54.57939 | 55.84328 | 542 ft | 133 kts | 152° |
| 2026-04-26 19:06 | 54.57135 | 55.85109 | 397 ft | 133 kts | 150° |
| 2026-04-26 19:06 | 54.56398 | 55.85824 | 392 ft | 101 kts | 151° |
| 2026-04-26 19:06 | 54.55933 | 55.86268 | 408 ft | 51 kts | 151° |
| 2026-04-26 19:06 | 54.55726 | 55.86471 | 414 ft | 25 kts | 150° |
| 2026-04-26 19:07 | 54.55579 | 55.86615 | 417 ft | 23 kts | 152° |
| 2026-04-26 19:07 | 54.55445 | 55.86738 | 420 ft | 20 kts | 150° |
| 2026-04-26 19:07 | 54.55331 | 55.86850 | 425 ft | 17 kts | 151° |
| 2026-04-26 19:07 | 54.55223 | 55.86950 | 425 ft | 17 kts | 152° |
| 2026-04-26 19:08 | 54.55114 | 55.87057 | 426 ft | 17 kts | 150° |
| 2026-04-26 19:08 | 54.55005 | 55.87163 | 428 ft | 17 kts | 150° |
| 2026-04-26 19:08 | 54.54893 | 55.87271 | 428 ft | 19 kts | 150° |
| 2026-04-26 19:08 | 54.54774 | 55.87386 | 430 ft | 19 kts | 151° |
| 2026-04-26 19:09 | 54.54655 | 55.87501 | 432 ft | 19 kts | 150° |
| 2026-04-26 19:09 | 54.54538 | 55.87613 | 435 ft | 19 kts | 150° |
| 2026-04-26 19:09 | 54.54432 | 55.87716 | 438 ft | 14 kts | 151° |
| 2026-04-26 19:09 | 54.54405 | 55.87858 | 439 ft | 14 kts | 77° |
| 2026-04-26 19:10 | 54.54437 | 55.88032 | 435 ft | 16 kts | 70° |
| 2026-04-26 19:10 | 54.54478 | 55.88235 | 433 ft | 18 kts | 71° |
| 2026-04-26 19:10 | 54.54523 | 55.88454 | 428 ft | 21 kts | 71° |
| 2026-04-26 19:10 | 54.54573 | 55.88703 | 423 ft | 23 kts | 71° |
| 2026-04-26 19:11 | 54.54623 | 55.88947 | 415 ft | 21 kts | 71° |
| 2026-04-26 19:11 | 54.54671 | 55.89184 | 408 ft | 20 kts | 71° |
| 2026-04-26 19:11 | 54.54728 | 55.89393 | 398 ft | 21 kts | 53° |
| 2026-04-26 19:11 | 54.54857 | 55.89551 | 389 ft | 24 kts | 31° |
| 2026-04-26 19:12 | 54.55006 | 55.89602 | 383 ft | 23 kts | 340° |
| 2026-04-26 19:12 | 54.55143 | 55.89469 | 383 ft | 22 kts | 330° |
| 2026-04-26 19:12 | 54.55282 | 55.89337 | 383 ft | 22 kts | 331° |
| 2026-04-26 19:12 | 54.55417 | 55.89206 | 383 ft | 22 kts | 330° |
| 2026-04-26 19:13 | 54.55551 | 55.89074 | 384 ft | 21 kts | 333° |
| 2026-04-26 19:13 | 54.55679 | 55.88955 | 386 ft | 20 kts | 330° |
| 2026-04-26 19:13 | 54.55802 | 55.88835 | 386 ft | 19 kts | 330° |
| 2026-04-26 19:13 | 54.55914 | 55.88728 | 386 ft | 18 kts | 331° |
| 2026-04-26 19:14 | 54.56028 | 55.88620 | 385 ft | 19 kts | 331° |
| 2026-04-26 19:14 | 54.56143 | 55.88506 | 385 ft | 18 kts | 330° |
| 2026-04-26 19:14 | 54.56235 | 55.88419 | 383 ft | 10 kts | 331° |
| 2026-04-26 19:14 | 54.56271 | 55.88411 | 383 ft | 6 kts | 46° |
| 2026-04-26 19:15 | 54.56292 | 55.88483 | 385 ft | 2 kts | 61° |
| 2026-04-26 19:15 | 54.56296 | 55.88497 | 385 ft | 0 kts | 62° |
| 2026-04-26 19:15 | 54.56297 | 55.88500 | 385 ft | 0 kts | 62° |
| 2026-04-26 19:15 | 54.56297 | 55.88501 | 385 ft | 0 kts | 61° |